sensor_id;sensor_type;location;lat;lon;timestamp;temperature;humidity
8253;DHT22;61313;48.396;10.008;2022-10-16T00:00:44;15.90;1.00
8253;DHT22;61313;48.396;10.008;2022-10-16T00:03:10;15.90;1.00
8253;DHT22;61313;48.396;10.008;2022-10-16T00:05:41;15.90;1.00
8253;DHT22;61313;48.396;10.008;2022-10-16T00:08:08;15.90;1.00
8253;DHT22;61313;48.396;10.008;2022-10-16T00:10:34;15.90;1.00
8253;DHT22;61313;48.396;10.008;2022-10-16T00:13:00;15.90;1.00
8253;DHT22;61313;48.396;10.008;2022-10-16T00:15:26;15.80;1.00
8253;DHT22;61313;48.396;10.008;2022-10-16T00:17:51;15.90;1.00
8253;DHT22;61313;48.396;10.008;2022-10-16T00:20:17;15.90;1.00
8253;DHT22;61313;48.396;10.008;2022-10-16T00:22:43;15.80;1.00
8253;DHT22;61313;48.396;10.008;2022-10-16T00:25:08;15.80;1.00
8253;DHT22;61313;48.396;10.008;2022-10-16T00:27:34;15.80;1.00
8253;DHT22;61313;48.396;10.008;2022-10-16T00:30:00;15.70;1.00
8253;DHT22;61313;48.396;10.008;2022-10-16T00:32:26;15.70;1.00
8253;DHT22;61313;48.396;10.008;2022-10-16T00:34:51;15.70;1.00
8253;DHT22;61313;48.396;10.008;2022-10-16T00:37:20;15.70;1.00
8253;DHT22;61313;48.396;10.008;2022-10-16T00:39:45;15.70;1.00
8253;DHT22;61313;48.396;10.008;2022-10-16T00:42:20;15.70;1.00
8253;DHT22;61313;48.396;10.008;2022-10-16T00:44:53;15.60;1.00
8253;DHT22;61313;48.396;10.008;2022-10-16T00:47:39;15.50;1.00
8253;DHT22;61313;48.396;10.008;2022-10-16T00:50:30;15.50;1.00
8253;DHT22;61313;48.396;10.008;2022-10-16T00:52:57;15.60;1.00
8253;DHT22;61313;48.396;10.008;2022-10-16T00:55:24;15.50;1.00
8253;DHT22;61313;48.396;10.008;2022-10-16T00:57:50;15.60;1.00
8253;DHT22;61313;48.396;10.008;2022-10-16T01:00:21;15.60;1.00
8253;DHT22;61313;48.396;10.008;2022-10-16T01:02:57;15.60;1.00
8253;DHT22;61313;48.396;10.008;2022-10-16T01:05:37;15.60;1.00
8253;DHT22;61313;48.396;10.008;2022-10-16T01:08:21;15.50;1.00
8253;DHT22;61313;48.396;10.008;2022-10-16T01:11:04;15.50;1.00
8253;DHT22;61313;48.396;10.008;2022-10-16T01:13:40;15.50;1.00
8253;DHT22;61313;48.396;10.008;2022-10-16T01:16:13;15.60;1.00
8253;DHT22;61313;48.396;10.008;2022-10-16T01:21:25;15.50;1.00
8253;DHT22;61313;48.396;10.008;2022-10-16T01:24:17;15.50;1.00
8253;DHT22;61313;48.396;10.008;2022-10-16T01:29:54;15.50;1.00
8253;DHT22;61313;48.396;10.008;2022-10-16T01:32:38;15.50;1.00
8253;DHT22;61313;48.396;10.008;2022-10-16T01:35:26;15.50;1.00
8253;DHT22;61313;48.396;10.008;2022-10-16T01:38:00;15.50;1.00
8253;DHT22;61313;48.396;10.008;2022-10-16T01:40:29;15.50;1.00
8253;DHT22;61313;48.396;10.008;2022-10-16T01:43:04;15.60;1.00
8253;DHT22;61313;48.396;10.008;2022-10-16T01:45:31;15.50;1.00
8253;DHT22;61313;48.396;10.008;2022-10-16T01:48:00;15.50;1.00
8253;DHT22;61313;48.396;10.008;2022-10-16T01:50:32;15.50;1.00
8253;DHT22;61313;48.396;10.008;2022-10-16T01:52:59;15.40;1.00
8253;DHT22;61313;48.396;10.008;2022-10-16T01:55:33;15.40;1.00
8253;DHT22;61313;48.396;10.008;2022-10-16T01:58:02;15.50;1.00
8253;DHT22;61313;48.396;10.008;2022-10-16T02:00:29;15.50;1.00
8253;DHT22;61313;48.396;10.008;2022-10-16T02:02:57;15.40;1.00
8253;DHT22;61313;48.396;10.008;2022-10-16T02:05:30;15.40;1.00
8253;DHT22;61313;48.396;10.008;2022-10-16T02:07:56;15.40;1.00
8253;DHT22;61313;48.396;10.008;2022-10-16T02:10:23;15.40;1.00
8253;DHT22;61313;48.396;10.008;2022-10-16T02:12:55;15.40;1.00
8253;DHT22;61313;48.396;10.008;2022-10-16T02:15:22;15.40;1.00
8253;DHT22;61313;48.396;10.008;2022-10-16T02:17:48;15.30;1.00
8253;DHT22;61313;48.396;10.008;2022-10-16T02:20:14;15.30;1.00
8253;DHT22;61313;48.396;10.008;2022-10-16T02:22:44;15.40;1.00
8253;DHT22;61313;48.396;10.008;2022-10-16T02:25:32;15.40;1.00
8253;DHT22;61313;48.396;10.008;2022-10-16T02:28:16;15.40;1.00
8253;DHT22;61313;48.396;10.008;2022-10-16T02:30:56;15.40;1.00
8253;DHT22;61313;48.396;10.008;2022-10-16T02:33:25;15.40;1.00
8253;DHT22;61313;48.396;10.008;2022-10-16T02:35:52;15.40;1.00
8253;DHT22;61313;48.396;10.008;2022-10-16T02:38:20;15.40;1.00
8253;DHT22;61313;48.396;10.008;2022-10-16T02:40:46;15.40;1.00
8253;DHT22;61313;48.396;10.008;2022-10-16T02:43:12;15.50;1.00
8253;DHT22;61313;48.396;10.008;2022-10-16T02:45:38;15.40;1.00
8253;DHT22;61313;48.396;10.008;2022-10-16T02:48:05;15.30;1.00
8253;DHT22;61313;48.396;10.008;2022-10-16T02:50:30;15.20;1.00
8253;DHT22;61313;48.396;10.008;2022-10-16T02:52:56;15.20;1.00
8253;DHT22;61313;48.396;10.008;2022-10-16T02:55:22;15.10;1.00
8253;DHT22;61313;48.396;10.008;2022-10-16T02:57:47;15.00;1.00
8253;DHT22;61313;48.396;10.008;2022-10-16T03:00:15;15.10;1.00
8253;DHT22;61313;48.396;10.008;2022-10-16T03:02:41;15.10;1.00
8253;DHT22;61313;48.396;10.008;2022-10-16T03:05:07;15.10;1.00
8253;DHT22;61313;48.396;10.008;2022-10-16T03:07:33;15.20;1.00
8253;DHT22;61313;48.396;10.008;2022-10-16T03:09:59;15.20;1.00
8253;DHT22;61313;48.396;10.008;2022-10-16T03:12:26;15.20;1.00
8253;DHT22;61313;48.396;10.008;2022-10-16T03:14:52;15.20;1.00
8253;DHT22;61313;48.396;10.008;2022-10-16T03:17:18;15.20;1.00
8253;DHT22;61313;48.396;10.008;2022-10-16T03:19:44;15.10;1.00
8253;DHT22;61313;48.396;10.008;2022-10-16T03:22:10;15.00;1.00
8253;DHT22;61313;48.396;10.008;2022-10-16T03:24:36;15.00;1.00
8253;DHT22;61313;48.396;10.008;2022-10-16T03:27:02;15.10;1.00
8253;DHT22;61313;48.396;10.008;2022-10-16T03:29:27;15.10;1.00
8253;DHT22;61313;48.396;10.008;2022-10-16T03:31:55;15.10;1.00
8253;DHT22;61313;48.396;10.008;2022-10-16T03:34:21;15.00;1.00
8253;DHT22;61313;48.396;10.008;2022-10-16T03:36:47;15.00;1.00
8253;DHT22;61313;48.396;10.008;2022-10-16T03:39:12;14.90;1.00
8253;DHT22;61313;48.396;10.008;2022-10-16T03:41:38;14.90;1.00
8253;DHT22;61313;48.396;10.008;2022-10-16T03:44:04;14.90;1.00
8253;DHT22;61313;48.396;10.008;2022-10-16T03:46:29;14.90;1.00
8253;DHT22;61313;48.396;10.008;2022-10-16T03:48:55;14.90;1.00
8253;DHT22;61313;48.396;10.008;2022-10-16T03:51:21;14.90;1.00
8253;DHT22;61313;48.396;10.008;2022-10-16T03:53:46;14.90;1.00
8253;DHT22;61313;48.396;10.008;2022-10-16T03:56:12;15.00;1.00
8253;DHT22;61313;48.396;10.008;2022-10-16T03:58:38;15.00;1.00
8253;DHT22;61313;48.396;10.008;2022-10-16T04:01:04;14.90;1.00
8253;DHT22;61313;48.396;10.008;2022-10-16T04:03:29;14.90;1.00
8253;DHT22;61313;48.396;10.008;2022-10-16T04:05:55;14.90;1.00
8253;DHT22;61313;48.396;10.008;2022-10-16T04:08:21;14.90;1.00
8253;DHT22;61313;48.396;10.008;2022-10-16T04:10:46;14.90;1.00
8253;DHT22;61313;48.396;10.008;2022-10-16T04:13:12;15.00;1.00
8253;DHT22;61313;48.396;10.008;2022-10-16T04:15:38;15.10;1.00
8253;DHT22;61313;48.396;10.008;2022-10-16T04:18:04;15.10;1.00
8253;DHT22;61313;48.396;10.008;2022-10-16T04:20:31;15.10;1.00
8253;DHT22;61313;48.396;10.008;2022-10-16T04:22:57;15.10;1.00
8253;DHT22;61313;48.396;10.008;2022-10-16T04:25:22;15.10;1.00
8253;DHT22;61313;48.396;10.008;2022-10-16T04:27:48;15.10;1.00
8253;DHT22;61313;48.396;10.008;2022-10-16T04:30:14;15.10;1.00
8253;DHT22;61313;48.396;10.008;2022-10-16T04:32:40;15.10;1.00
8253;DHT22;61313;48.396;10.008;2022-10-16T04:35:07;15.10;1.00
8253;DHT22;61313;48.396;10.008;2022-10-16T04:37:33;15.10;1.00
8253;DHT22;61313;48.396;10.008;2022-10-16T04:39:58;15.10;1.00
8253;DHT22;61313;48.396;10.008;2022-10-16T04:42:24;15.10;1.00
8253;DHT22;61313;48.396;10.008;2022-10-16T04:44:50;15.00;1.00
8253;DHT22;61313;48.396;10.008;2022-10-16T04:47:15;15.00;1.00
8253;DHT22;61313;48.396;10.008;2022-10-16T04:49:41;15.00;1.00
8253;DHT22;61313;48.396;10.008;2022-10-16T04:52:07;15.00;1.00
8253;DHT22;61313;48.396;10.008;2022-10-16T04:54:34;15.00;1.00
8253;DHT22;61313;48.396;10.008;2022-10-16T04:57:00;15.00;1.00
8253;DHT22;61313;48.396;10.008;2022-10-16T04:59:25;15.10;1.00
8253;DHT22;61313;48.396;10.008;2022-10-16T05:01:51;15.00;1.00
8253;DHT22;61313;48.396;10.008;2022-10-16T05:04:17;15.00;1.00
8253;DHT22;61313;48.396;10.008;2022-10-16T05:06:43;15.00;1.00
8253;DHT22;61313;48.396;10.008;2022-10-16T05:09:08;15.00;1.00
8253;DHT22;61313;48.396;10.008;2022-10-16T05:11:34;15.00;1.00
8253;DHT22;61313;48.396;10.008;2022-10-16T05:14:01;14.90;1.00
8253;DHT22;61313;48.396;10.008;2022-10-16T05:16:27;14.90;1.00
8253;DHT22;61313;48.396;10.008;2022-10-16T05:18:53;14.90;1.00
8253;DHT22;61313;48.396;10.008;2022-10-16T05:21:20;14.90;1.00
8253;DHT22;61313;48.396;10.008;2022-10-16T05:23:45;14.70;1.00
8253;DHT22;61313;48.396;10.008;2022-10-16T05:26:11;14.50;1.00
8253;DHT22;61313;48.396;10.008;2022-10-16T05:28:37;14.40;1.00
8253;DHT22;61313;48.396;10.008;2022-10-16T05:31:07;14.30;1.00
8253;DHT22;61313;48.396;10.008;2022-10-16T05:33:32;14.30;1.00
8253;DHT22;61313;48.396;10.008;2022-10-16T05:36:03;14.50;1.00
8253;DHT22;61313;48.396;10.008;2022-10-16T05:38:29;14.60;1.00
8253;DHT22;61313;48.396;10.008;2022-10-16T05:40:54;14.70;1.00
8253;DHT22;61313;48.396;10.008;2022-10-16T05:43:21;14.70;1.00
8253;DHT22;61313;48.396;10.008;2022-10-16T05:45:55;14.80;1.00
8253;DHT22;61313;48.396;10.008;2022-10-16T05:48:21;14.90;1.00
8253;DHT22;61313;48.396;10.008;2022-10-16T05:50:47;15.00;1.00
8253;DHT22;61313;48.396;10.008;2022-10-16T05:53:13;15.00;1.00
8253;DHT22;61313;48.396;10.008;2022-10-16T05:55:39;15.10;1.00
8253;DHT22;61313;48.396;10.008;2022-10-16T05:58:04;15.30;1.00
8253;DHT22;61313;48.396;10.008;2022-10-16T06:00:30;15.40;1.00
8253;DHT22;61313;48.396;10.008;2022-10-16T06:02:55;15.30;1.00
8253;DHT22;61313;48.396;10.008;2022-10-16T06:05:21;15.30;1.00
8253;DHT22;61313;48.396;10.008;2022-10-16T06:07:47;15.20;1.00
8253;DHT22;61313;48.396;10.008;2022-10-16T06:10:12;15.30;1.00
8253;DHT22;61313;48.396;10.008;2022-10-16T06:12:38;16.70;1.00
8253;DHT22;61313;48.396;10.008;2022-10-16T06:15:04;17.80;1.00
8253;DHT22;61313;48.396;10.008;2022-10-16T06:17:30;18.20;1.00
8253;DHT22;61313;48.396;10.008;2022-10-16T06:19:55;17.60;99.90
8253;DHT22;61313;48.396;10.008;2022-10-16T06:22:21;16.80;1.00
8253;DHT22;61313;48.396;10.008;2022-10-16T06:24:47;16.40;99.90
8253;DHT22;61313;48.396;10.008;2022-10-16T06:27:13;16.00;1.00
8253;DHT22;61313;48.396;10.008;2022-10-16T06:29:38;15.80;1.00
8253;DHT22;61313;48.396;10.008;2022-10-16T06:32:04;15.70;1.00
8253;DHT22;61313;48.396;10.008;2022-10-16T06:34:30;15.60;1.00
8253;DHT22;61313;48.396;10.008;2022-10-16T06:36:55;15.60;1.00
8253;DHT22;61313;48.396;10.008;2022-10-16T06:39:21;15.50;1.00
8253;DHT22;61313;48.396;10.008;2022-10-16T06:41:47;15.50;1.00
8253;DHT22;61313;48.396;10.008;2022-10-16T06:44:12;15.60;1.00
8253;DHT22;61313;48.396;10.008;2022-10-16T06:46:38;15.60;1.00
8253;DHT22;61313;48.396;10.008;2022-10-16T06:49:03;15.70;1.00
8253;DHT22;61313;48.396;10.008;2022-10-16T06:51:29;15.80;1.00
8253;DHT22;61313;48.396;10.008;2022-10-16T06:53:57;15.90;1.00
8253;DHT22;61313;48.396;10.008;2022-10-16T06:56:25;16.00;1.00
8253;DHT22;61313;48.396;10.008;2022-10-16T06:58:52;16.00;1.00
8253;DHT22;61313;48.396;10.008;2022-10-16T07:01:19;16.00;1.00
8253;DHT22;61313;48.396;10.008;2022-10-16T07:03:46;16.00;1.00
8253;DHT22;61313;48.396;10.008;2022-10-16T07:06:14;16.00;1.00
8253;DHT22;61313;48.396;10.008;2022-10-16T07:08:41;15.90;1.00
8253;DHT22;61313;48.396;10.008;2022-10-16T07:11:10;15.90;1.00
8253;DHT22;61313;48.396;10.008;2022-10-16T07:13:37;15.70;1.00
8253;DHT22;61313;48.396;10.008;2022-10-16T07:18:35;15.60;1.00
8253;DHT22;61313;48.396;10.008;2022-10-16T07:21:10;15.60;1.00
8253;DHT22;61313;48.396;10.008;2022-10-16T07:23:36;15.60;1.00
8253;DHT22;61313;48.396;10.008;2022-10-16T07:26:03;15.80;1.00
8253;DHT22;61313;48.396;10.008;2022-10-16T07:28:29;15.80;1.00
8253;DHT22;61313;48.396;10.008;2022-10-16T07:30:54;15.70;1.00
8253;DHT22;61313;48.396;10.008;2022-10-16T07:33:21;15.80;1.00
8253;DHT22;61313;48.396;10.008;2022-10-16T07:35:53;16.10;1.00
8253;DHT22;61313;48.396;10.008;2022-10-16T07:38:20;16.30;1.00
8253;DHT22;61313;48.396;10.008;2022-10-16T07:40:46;16.40;1.00
8253;DHT22;61313;48.396;10.008;2022-10-16T07:43:12;16.50;1.00
8253;DHT22;61313;48.396;10.008;2022-10-16T07:45:46;16.60;1.00
8253;DHT22;61313;48.396;10.008;2022-10-16T07:48:11;16.60;1.00
8253;DHT22;61313;48.396;10.008;2022-10-16T07:50:37;16.60;1.00
8253;DHT22;61313;48.396;10.008;2022-10-16T07:53:03;16.60;1.00
8253;DHT22;61313;48.396;10.008;2022-10-16T07:55:29;16.60;1.00
8253;DHT22;61313;48.396;10.008;2022-10-16T07:57:55;16.60;1.00
8253;DHT22;61313;48.396;10.008;2022-10-16T08:00:20;16.60;1.00
8253;DHT22;61313;48.396;10.008;2022-10-16T08:02:46;16.60;1.00
8253;DHT22;61313;48.396;10.008;2022-10-16T08:05:12;16.50;1.00
8253;DHT22;61313;48.396;10.008;2022-10-16T08:07:37;16.40;1.00
8253;DHT22;61313;48.396;10.008;2022-10-16T08:10:03;16.50;1.00
8253;DHT22;61313;48.396;10.008;2022-10-16T08:12:29;16.40;1.00
8253;DHT22;61313;48.396;10.008;2022-10-16T08:14:55;16.40;1.00
8253;DHT22;61313;48.396;10.008;2022-10-16T08:17:21;16.40;1.00
8253;DHT22;61313;48.396;10.008;2022-10-16T08:19:47;16.30;1.00
8253;DHT22;61313;48.396;10.008;2022-10-16T08:22:13;16.30;1.00
8253;DHT22;61313;48.396;10.008;2022-10-16T08:24:39;16.30;1.00
8253;DHT22;61313;48.396;10.008;2022-10-16T08:27:05;16.30;1.00
8253;DHT22;61313;48.396;10.008;2022-10-16T08:29:31;16.40;1.00
8253;DHT22;61313;48.396;10.008;2022-10-16T08:31:56;16.50;1.00
8253;DHT22;61313;48.396;10.008;2022-10-16T08:34:22;16.50;1.00
8253;DHT22;61313;48.396;10.008;2022-10-16T08:36:48;16.50;1.00
8253;DHT22;61313;48.396;10.008;2022-10-16T08:39:13;16.50;1.00
8253;DHT22;61313;48.396;10.008;2022-10-16T08:47:18;16.60;1.00
8253;DHT22;61313;48.396;10.008;2022-10-16T08:50:12;16.60;1.00
8253;DHT22;61313;48.396;10.008;2022-10-16T08:52:43;16.70;1.00
8253;DHT22;61313;48.396;10.008;2022-10-16T08:55:46;16.70;1.00
8253;DHT22;61313;48.396;10.008;2022-10-16T08:58:20;16.70;1.00
8253;DHT22;61313;48.396;10.008;2022-10-16T09:00:53;16.70;1.00
8253;DHT22;61313;48.396;10.008;2022-10-16T09:14:07;16.80;1.00
8253;DHT22;61313;48.396;10.008;2022-10-16T09:16:44;16.80;1.00
8253;DHT22;61313;48.396;10.008;2022-10-16T09:19:24;16.90;1.00
8253;DHT22;61313;48.396;10.008;2022-10-16T09:21:50;16.90;1.00
8253;DHT22;61313;48.396;10.008;2022-10-16T09:24:24;16.90;1.00
8253;DHT22;61313;48.396;10.008;2022-10-16T09:26:50;16.90;1.00
8253;DHT22;61313;48.396;10.008;2022-10-16T09:29:17;17.00;1.00
8253;DHT22;61313;48.396;10.008;2022-10-16T09:31:46;17.00;1.00
8253;DHT22;61313;48.396;10.008;2022-10-16T09:36:46;17.10;1.00
8253;DHT22;61313;48.396;10.008;2022-10-16T09:39:12;17.20;1.00
8253;DHT22;61313;48.396;10.008;2022-10-16T09:41:40;17.20;1.00
8253;DHT22;61313;48.396;10.008;2022-10-16T09:44:21;17.30;1.00
8253;DHT22;61313;48.396;10.008;2022-10-16T09:46:48;17.40;1.00
8253;DHT22;61313;48.396;10.008;2022-10-16T09:49:25;17.40;1.00
8253;DHT22;61313;48.396;10.008;2022-10-16T09:52:02;17.40;1.00
8253;DHT22;61313;48.396;10.008;2022-10-16T09:54:29;17.50;1.00
8253;DHT22;61313;48.396;10.008;2022-10-16T09:57:04;17.60;1.00
8253;DHT22;61313;48.396;10.008;2022-10-16T09:59:31;17.70;99.90
8253;DHT22;61313;48.396;10.008;2022-10-16T10:02:02;17.90;99.90
8253;DHT22;61313;48.396;10.008;2022-10-16T10:04:38;18.00;99.90
8253;DHT22;61313;48.396;10.008;2022-10-16T10:07:07;18.20;16.80
8253;DHT22;61313;48.396;10.008;2022-10-16T10:09:44;18.20;1.00
8253;DHT22;61313;48.396;10.008;2022-10-16T10:12:27;18.20;1.00
8253;DHT22;61313;48.396;10.008;2022-10-16T10:14:58;18.20;1.00
8253;DHT22;61313;48.396;10.008;2022-10-16T10:17:28;18.10;1.00
8253;DHT22;61313;48.396;10.008;2022-10-16T10:19:59;18.10;1.00
8253;DHT22;61313;48.396;10.008;2022-10-16T10:22:40;18.20;1.00
8253;DHT22;61313;48.396;10.008;2022-10-16T10:25:15;18.20;1.00
8253;DHT22;61313;48.396;10.008;2022-10-16T10:27:50;18.20;1.00
8253;DHT22;61313;48.396;10.008;2022-10-16T10:38:59;18.40;99.90
8253;DHT22;61313;48.396;10.008;2022-10-16T10:44:32;18.40;93.50
8253;DHT22;61313;48.396;10.008;2022-10-16T10:49:53;18.70;99.90
8253;DHT22;61313;48.396;10.008;2022-10-16T10:52:47;18.60;29.60
8253;DHT22;61313;48.396;10.008;2022-10-16T11:01:10;18.70;99.90
8253;DHT22;61313;48.396;10.008;2022-10-16T11:11:41;18.60;1.00
8253;DHT22;61313;48.396;10.008;2022-10-16T11:14:26;18.60;1.00
8253;DHT22;61313;48.396;10.008;2022-10-16T11:16:59;18.50;1.00
8253;DHT22;61313;48.396;10.008;2022-10-16T11:27:20;18.80;1.00
8253;DHT22;61313;48.396;10.008;2022-10-16T11:29:53;18.80;1.00
8253;DHT22;61313;48.396;10.008;2022-10-16T11:35:38;18.90;1.00
8253;DHT22;61313;48.396;10.008;2022-10-16T11:38:13;19.00;1.00
8253;DHT22;61313;48.396;10.008;2022-10-16T11:40:41;19.10;1.00
8253;DHT22;61313;48.396;10.008;2022-10-16T11:43:32;19.20;99.90
8253;DHT22;61313;48.396;10.008;2022-10-16T11:46:08;19.40;71.40
8253;DHT22;61313;48.396;10.008;2022-10-16T11:51:32;19.60;1.00
8253;DHT22;61313;48.396;10.008;2022-10-16T11:56:44;20.30;99.90
8253;DHT22;61313;48.396;10.008;2022-10-16T11:59:24;20.50;1.00
8253;DHT22;61313;48.396;10.008;2022-10-16T12:04:49;20.90;1.00
8253;DHT22;61313;48.396;10.008;2022-10-16T12:07:24;21.00;99.90
8253;DHT22;61313;48.396;10.008;2022-10-16T12:09:53;21.00;99.90
8253;DHT22;61313;48.396;10.008;2022-10-16T12:12:38;21.00;99.90
8253;DHT22;61313;48.396;10.008;2022-10-16T12:15:25;21.10;99.90
8253;DHT22;61313;48.396;10.008;2022-10-16T12:17:51;21.10;61.50
8253;DHT22;61313;48.396;10.008;2022-10-16T12:22:54;21.20;8.50
8253;DHT22;61313;48.396;10.008;2022-10-16T12:28:17;21.30;1.00
8253;DHT22;61313;48.396;10.008;2022-10-16T12:30:53;21.30;1.00
8253;DHT22;61313;48.396;10.008;2022-10-16T12:33:28;21.40;1.00
8253;DHT22;61313;48.396;10.008;2022-10-16T12:35:55;21.40;1.00
8253;DHT22;61313;48.396;10.008;2022-10-16T12:38:26;21.50;1.00
8253;DHT22;61313;48.396;10.008;2022-10-16T12:41:05;21.50;1.00
8253;DHT22;61313;48.396;10.008;2022-10-16T12:44:00;21.40;1.00
8253;DHT22;61313;48.396;10.008;2022-10-16T12:51:42;21.50;1.00
8253;DHT22;61313;48.396;10.008;2022-10-16T12:57:21;21.40;1.00
8253;DHT22;61313;48.396;10.008;2022-10-16T13:05:14;21.40;1.00
8253;DHT22;61313;48.396;10.008;2022-10-16T13:10:42;21.50;1.00
8253;DHT22;61313;48.396;10.008;2022-10-16T13:16:23;21.50;1.00
8253;DHT22;61313;48.396;10.008;2022-10-16T13:21:48;21.40;1.00
8253;DHT22;61313;48.396;10.008;2022-10-16T13:29:52;21.50;1.00
8253;DHT22;61313;48.396;10.008;2022-10-16T13:32:21;21.40;1.00
8253;DHT22;61313;48.396;10.008;2022-10-16T13:34:48;21.50;1.00
8253;DHT22;61313;48.396;10.008;2022-10-16T13:37:22;21.50;1.00
8253;DHT22;61313;48.396;10.008;2022-10-16T13:39:48;21.50;1.00
8253;DHT22;61313;48.396;10.008;2022-10-16T13:42:27;21.50;1.00
8253;DHT22;61313;48.396;10.008;2022-10-16T13:44:54;21.50;1.00
8253;DHT22;61313;48.396;10.008;2022-10-16T13:50:03;21.50;1.00
8253;DHT22;61313;48.396;10.008;2022-10-16T13:52:30;21.50;1.00
8253;DHT22;61313;48.396;10.008;2022-10-16T13:54:56;21.50;1.00
8253;DHT22;61313;48.396;10.008;2022-10-16T13:57:24;21.50;1.00
8253;DHT22;61313;48.396;10.008;2022-10-16T13:59:50;21.50;1.00
8253;DHT22;61313;48.396;10.008;2022-10-16T14:02:37;21.50;1.00
8253;DHT22;61313;48.396;10.008;2022-10-16T14:05:07;21.50;1.00
8253;DHT22;61313;48.396;10.008;2022-10-16T14:07:35;21.50;1.00
8253;DHT22;61313;48.396;10.008;2022-10-16T14:10:05;21.40;99.90
8253;DHT22;61313;48.396;10.008;2022-10-16T14:12:31;21.30;99.90
8253;DHT22;61313;48.396;10.008;2022-10-16T14:14:58;21.30;99.90
8253;DHT22;61313;48.396;10.008;2022-10-16T14:17:30;21.30;99.90
8253;DHT22;61313;48.396;10.008;2022-10-16T14:19:58;21.30;99.90
8253;DHT22;61313;48.396;10.008;2022-10-16T14:25:13;21.30;99.90
8253;DHT22;61313;48.396;10.008;2022-10-16T14:27:42;21.40;99.90
8253;DHT22;61313;48.396;10.008;2022-10-16T14:32:33;21.50;99.90
8253;DHT22;61313;48.396;10.008;2022-10-16T14:34:59;21.50;99.90
8253;DHT22;61313;48.396;10.008;2022-10-16T14:37:27;21.50;99.90
8253;DHT22;61313;48.396;10.008;2022-10-16T14:39:55;21.60;99.90
8253;DHT22;61313;48.396;10.008;2022-10-16T14:42:22;21.60;99.90
8253;DHT22;61313;48.396;10.008;2022-10-16T14:44:50;21.60;99.90
8253;DHT22;61313;48.396;10.008;2022-10-16T14:47:20;21.60;99.90
8253;DHT22;61313;48.396;10.008;2022-10-16T14:49:50;21.60;99.90
8253;DHT22;61313;48.396;10.008;2022-10-16T14:52:16;21.50;99.90
8253;DHT22;61313;48.396;10.008;2022-10-16T14:54:42;21.50;99.90
8253;DHT22;61313;48.396;10.008;2022-10-16T14:57:21;21.40;99.90
8253;DHT22;61313;48.396;10.008;2022-10-16T14:59:48;21.40;99.90
8253;DHT22;61313;48.396;10.008;2022-10-16T15:02:35;21.50;99.90
8253;DHT22;61313;48.396;10.008;2022-10-16T15:07:42;21.50;99.90
8253;DHT22;61313;48.396;10.008;2022-10-16T15:10:09;21.50;99.90
8253;DHT22;61313;48.396;10.008;2022-10-16T15:12:35;21.40;99.90
8253;DHT22;61313;48.396;10.008;2022-10-16T15:15:00;21.30;99.90
8253;DHT22;61313;48.396;10.008;2022-10-16T15:17:26;21.30;99.90
8253;DHT22;61313;48.396;10.008;2022-10-16T15:19:52;21.20;99.90
8253;DHT22;61313;48.396;10.008;2022-10-16T15:22:17;21.20;99.90
8253;DHT22;61313;48.396;10.008;2022-10-16T15:24:43;21.20;99.90
8253;DHT22;61313;48.396;10.008;2022-10-16T15:27:09;21.20;99.90
8253;DHT22;61313;48.396;10.008;2022-10-16T15:29:35;21.20;99.90
8253;DHT22;61313;48.396;10.008;2022-10-16T15:32:00;21.10;99.90
8253;DHT22;61313;48.396;10.008;2022-10-16T15:34:26;21.10;99.90
8253;DHT22;61313;48.396;10.008;2022-10-16T15:36:52;21.10;99.90
8253;DHT22;61313;48.396;10.008;2022-10-16T15:39:19;21.10;99.90
8253;DHT22;61313;48.396;10.008;2022-10-16T15:41:47;21.10;99.90
8253;DHT22;61313;48.396;10.008;2022-10-16T15:44:16;21.10;99.90
8253;DHT22;61313;48.396;10.008;2022-10-16T15:46:42;21.00;99.90
8253;DHT22;61313;48.396;10.008;2022-10-16T15:49:08;20.90;99.90
8253;DHT22;61313;48.396;10.008;2022-10-16T15:51:38;20.90;99.90
8253;DHT22;61313;48.396;10.008;2022-10-16T15:54:04;20.80;99.90
8253;DHT22;61313;48.396;10.008;2022-10-16T15:56:30;20.80;99.90
8253;DHT22;61313;48.396;10.008;2022-10-16T15:58:59;20.70;99.90
8253;DHT22;61313;48.396;10.008;2022-10-16T16:01:26;20.70;99.90
8253;DHT22;61313;48.396;10.008;2022-10-16T16:03:55;20.60;99.90
8253;DHT22;61313;48.396;10.008;2022-10-16T16:06:21;20.60;1.00
8253;DHT22;61313;48.396;10.008;2022-10-16T16:08:49;20.50;1.00
8253;DHT22;61313;48.396;10.008;2022-10-16T16:11:16;20.40;1.00
8253;DHT22;61313;48.396;10.008;2022-10-16T16:13:42;20.30;1.00
8253;DHT22;61313;48.396;10.008;2022-10-16T16:16:10;20.20;1.00
8253;DHT22;61313;48.396;10.008;2022-10-16T16:18:36;20.20;1.00
8253;DHT22;61313;48.396;10.008;2022-10-16T16:21:02;20.20;1.00
8253;DHT22;61313;48.396;10.008;2022-10-16T16:23:28;20.10;1.00
8253;DHT22;61313;48.396;10.008;2022-10-16T16:26:11;20.00;3.00
8253;DHT22;61313;48.396;10.008;2022-10-16T16:28:37;19.90;99.90
8253;DHT22;61313;48.396;10.008;2022-10-16T16:31:03;19.80;99.90
8253;DHT22;61313;48.396;10.008;2022-10-16T16:33:29;19.80;1.00
8253;DHT22;61313;48.396;10.008;2022-10-16T16:36:01;19.70;1.00
8253;DHT22;61313;48.396;10.008;2022-10-16T16:38:27;19.60;99.90
8253;DHT22;61313;48.396;10.008;2022-10-16T16:40:53;19.50;99.90
8253;DHT22;61313;48.396;10.008;2022-10-16T16:43:22;19.50;99.90
8253;DHT22;61313;48.396;10.008;2022-10-16T16:45:48;19.50;1.00
8253;DHT22;61313;48.396;10.008;2022-10-16T16:48:13;19.50;1.00
8253;DHT22;61313;48.396;10.008;2022-10-16T16:50:39;19.40;1.00
8253;DHT22;61313;48.396;10.008;2022-10-16T16:53:05;19.30;1.00
8253;DHT22;61313;48.396;10.008;2022-10-16T16:55:32;19.20;99.90
8253;DHT22;61313;48.396;10.008;2022-10-16T16:57:58;19.20;1.00
8253;DHT22;61313;48.396;10.008;2022-10-16T17:00:23;19.20;1.00
8253;DHT22;61313;48.396;10.008;2022-10-16T17:02:50;19.20;30.50
8253;DHT22;61313;48.396;10.008;2022-10-16T17:05:16;19.20;99.90
8253;DHT22;61313;48.396;10.008;2022-10-16T17:07:42;19.10;1.00
8253;DHT22;61313;48.396;10.008;2022-10-16T17:10:08;19.00;99.90
8253;DHT22;61313;48.396;10.008;2022-10-16T17:12:34;18.90;99.90
8253;DHT22;61313;48.396;10.008;2022-10-16T17:15:00;18.90;99.90
8253;DHT22;61313;48.396;10.008;2022-10-16T17:17:26;18.90;1.00
8253;DHT22;61313;48.396;10.008;2022-10-16T17:19:51;18.90;1.00
8253;DHT22;61313;48.396;10.008;2022-10-16T17:22:18;18.90;1.00
8253;DHT22;61313;48.396;10.008;2022-10-16T17:24:47;18.80;1.00
8253;DHT22;61313;48.396;10.008;2022-10-16T17:27:15;18.80;1.00
8253;DHT22;61313;48.396;10.008;2022-10-16T17:29:40;18.80;1.00
8253;DHT22;61313;48.396;10.008;2022-10-16T17:32:06;18.80;1.00
8253;DHT22;61313;48.396;10.008;2022-10-16T17:34:32;18.80;19.10
8253;DHT22;61313;48.396;10.008;2022-10-16T17:36:58;18.70;91.10
8253;DHT22;61313;48.396;10.008;2022-10-16T17:39:23;18.70;99.90
8253;DHT22;61313;48.396;10.008;2022-10-16T17:41:49;18.70;99.90
8253;DHT22;61313;48.396;10.008;2022-10-16T17:44:15;18.70;99.90
8253;DHT22;61313;48.396;10.008;2022-10-16T17:46:46;18.60;99.90
8253;DHT22;61313;48.396;10.008;2022-10-16T17:49:12;18.60;99.90
8253;DHT22;61313;48.396;10.008;2022-10-16T17:51:38;18.60;99.90